createdAt,value
2023-01-25T09:30:43.000Z,-131.221405
2023-01-25T09:31:03.000Z,117.516998
2023-01-25T09:31:23.000Z,-5.698200
2023-01-25T09:36:04.000Z,-5.336676
2023-01-25T09:36:24.000Z,-5.300763
2023-01-25T09:36:44.000Z,-5.346252
2023-01-25T09:37:04.000Z,-5.204995
2023-01-25T09:41:23.000Z,-5.195418
2023-01-25T09:41:23.000Z,-5.195418
2023-01-25T09:41:43.000Z,-5.173870
2023-01-25T09:41:43.000Z,-5.173870
2023-01-25T09:42:03.000Z,-5.212177
2023-01-25T09:42:03.000Z,-5.212177
2023-01-25T09:50:40.000Z,5.339070
2023-01-25T09:51:00.000Z,473.177063
2023-01-25T09:51:20.000Z,478.221405
2023-01-25T09:51:40.000Z,485.739594
2023-01-25T09:52:00.000Z,490.552887
2023-01-25T09:52:21.000Z,483.777954
2023-01-25T09:52:41.000Z,496.144043
2023-01-25T09:53:01.000Z,498.836304
2023-01-25T09:53:21.000Z,499.469604
2023-01-25T09:53:41.000Z,497.344086
2023-01-25T09:54:02.000Z,498.842377
2023-01-25T09:54:22.000Z,497.942047
2023-01-25T09:54:42.000Z,500.490051
2023-01-25T09:55:02.000Z,494.410645
2023-01-25T09:55:22.000Z,479.782776
2023-01-25T09:55:43.000Z,475.485443
2023-01-25T09:56:03.000Z,471.081940
2023-01-25T09:56:23.000Z,470.858765
2023-01-25T09:56:43.000Z,471.325806
2023-01-25T09:57:04.000Z,473.441406
2023-01-25T09:57:24.000Z,473.992828
2023-01-25T09:57:44.000Z,478.431885
2023-01-25T09:58:04.000Z,469.926086
2023-01-25T09:58:24.000Z,474.860382
2023-01-25T09:58:45.000Z,472.058685
2023-01-25T09:59:05.000Z,466.761627
2023-01-25T09:59:25.000Z,472.142761
2023-01-25T09:59:45.000Z,470.177429
2023-01-25T10:00:05.000Z,474.309204
2023-01-25T10:00:26.000Z,474.436798
2023-01-25T10:00:46.000Z,469.090179
2023-01-25T10:01:06.000Z,463.774719
2023-01-25T10:01:26.000Z,462.772247
2023-01-25T10:01:46.000Z,465.760376
2023-01-25T10:02:07.000Z,467.257202
2023-01-25T10:02:27.000Z,461.352448
2023-01-25T10:02:47.000Z,459.844879
2023-01-25T12:12:49.000Z,231.363327
2023-01-25T12:13:09.000Z,423.610138
2023-01-25T12:13:29.000Z,420.030457
2023-01-25T12:13:49.000Z,410.167389
2023-01-25T12:14:10.000Z,414.955170
2023-01-25T12:14:30.000Z,415.757355
2023-01-25T12:14:50.000Z,418.833405
2023-01-25T12:15:10.000Z,423.595123
2023-01-25T12:15:31.000Z,421.320953
2023-01-25T12:15:51.000Z,425.370148
2023-01-25T12:16:11.000Z,425.056366
2023-01-25T12:16:31.000Z,425.377289
2023-01-25T12:16:58.000Z,223.469818
2023-01-25T12:17:18.000Z,422.745544
2023-01-25T12:17:47.000Z,240.878067
2023-01-25T12:18:07.000Z,406.982544
2023-01-25T12:18:27.000Z,960.286804
2023-01-25T12:18:47.000Z,672.884583
2023-01-25T12:19:07.000Z,79.861053
2023-01-25T12:19:28.000Z,81.065285
2023-01-25T12:19:48.000Z,82.441902
2023-01-25T12:20:08.000Z,77.701584
2023-01-25T12:20:28.000Z,67.150452
2023-01-25T12:21:10.000Z,52.021435
2023-01-25T12:21:30.000Z,74.634705
2023-01-25T12:21:51.000Z,72.503922
2023-01-25T12:22:11.000Z,74.567841
2023-01-25T12:22:31.000Z,80.452698
2023-01-25T12:22:51.000Z,77.002823
2023-01-25T12:23:12.000Z,78.970909
2023-01-25T12:23:32.000Z,86.024445
2023-01-25T12:23:52.000Z,88.358856
2023-01-25T12:24:12.000Z,87.489632
2023-01-25T12:24:32.000Z,92.893112
2023-01-25T12:24:53.000Z,92.455231
2023-01-25T12:25:13.000Z,90.144844
2023-01-25T12:25:33.000Z,94.351387
2023-01-25T12:25:53.000Z,88.255684
2023-01-25T12:26:13.000Z,87.017776
2023-01-25T12:26:34.000Z,81.381767
2023-01-25T12:26:54.000Z,80.567818
2023-01-25T12:27:14.000Z,86.644379
2023-01-25T12:27:34.000Z,87.381859
2023-01-25T12:27:54.000Z,82.892540
2023-01-25T12:28:15.000Z,69.417976
2023-01-25T12:28:35.000Z,76.514198
2023-01-25T12:28:55.000Z,76.267708
2023-01-25T12:29:15.000Z,83.366737
2023-01-25T12:29:36.000Z,69.499298
2023-01-25T12:29:56.000Z,74.637535
2023-01-25T12:30:16.000Z,66.556892
2023-01-25T12:30:36.000Z,86.148758
2023-01-25T12:30:56.000Z,86.896042
2023-01-25T12:31:17.000Z,81.786316
2023-01-25T12:31:37.000Z,74.010056
2023-01-25T12:31:57.000Z,80.783081
2023-01-25T12:32:17.000Z,82.428123
2023-01-25T12:32:38.000Z,78.441704
2023-01-25T12:32:58.000Z,80.019310
2023-01-25T12:33:18.000Z,86.759407
2023-01-25T12:33:38.000Z,69.513779
2023-01-25T12:33:58.000Z,81.884972
2023-01-25T12:34:19.000Z,85.009315
2023-01-25T12:34:39.000Z,83.943726
2023-01-25T12:34:59.000Z,70.631996
2023-01-25T12:35:19.000Z,89.187195
2023-01-25T12:35:40.000Z,83.213676
2023-01-25T12:36:00.000Z,82.705963
2023-01-25T12:36:20.000Z,79.995697
2023-01-25T12:36:40.000Z,82.885590
2023-01-25T12:37:00.000Z,84.118561
2023-01-25T12:37:21.000Z,86.840744
2023-01-25T12:37:41.000Z,85.241547
2023-01-25T12:38:01.000Z,78.829796
2023-01-25T12:38:21.000Z,75.286163
2023-01-25T12:38:42.000Z,81.683594
2023-01-25T12:39:02.000Z,82.057236
2023-01-25T12:39:22.000Z,89.163170
2023-01-25T12:39:42.000Z,88.471230
2023-01-25T12:40:02.000Z,105.857971
2023-01-25T12:40:23.000Z,85.892555
2023-01-25T12:40:43.000Z,95.538925
2023-01-25T12:41:03.000Z,98.012329
2023-01-25T12:41:23.000Z,99.461021
2023-01-25T12:41:44.000Z,97.797096
2023-01-25T12:42:04.000Z,96.625992
2023-01-25T12:42:24.000Z,105.051399
2023-01-25T12:42:44.000Z,100.744217
2023-01-25T12:43:04.000Z,96.613853
2023-01-25T12:43:25.000Z,94.466515
2023-01-25T12:43:45.000Z,93.022377
2023-01-25T12:44:05.000Z,93.896530
2023-01-25T12:44:25.000Z,88.277290
2023-01-25T12:44:46.000Z,89.316292
2023-01-25T12:45:06.000Z,101.563118
2023-01-25T12:45:26.000Z,104.311462
2023-01-25T12:45:46.000Z,97.119301
2023-01-25T12:46:06.000Z,104.684700
2023-01-25T12:46:27.000Z,97.085709
2023-01-25T12:46:47.000Z,92.699425
2023-01-25T12:47:07.000Z,92.445618
2023-01-25T12:47:27.000Z,83.211304
2023-01-25T12:47:48.000Z,88.073753
2023-01-25T12:48:08.000Z,84.662086
2023-01-25T12:48:28.000Z,98.237419
2023-01-25T12:48:48.000Z,104.787964
2023-01-25T12:49:09.000Z,94.035408
2023-01-25T12:49:29.000Z,85.035774
2023-01-25T12:49:49.000Z,97.212471
2023-01-25T12:50:09.000Z,102.470200
2023-01-25T12:50:29.000Z,86.809731
2023-01-25T12:50:50.000Z,80.632462
2023-01-25T12:51:10.000Z,93.573219
2023-01-25T12:51:30.000Z,104.378448
2023-01-25T12:51:50.000Z,97.492615
2023-01-25T12:52:11.000Z,89.402710
2023-01-25T12:52:31.000Z,87.036995
2023-01-25T12:52:51.000Z,85.090691
2023-01-25T12:53:11.000Z,90.101891
2023-01-25T12:53:31.000Z,79.042725
2023-01-25T12:53:52.000Z,88.375305
2023-01-25T12:54:12.000Z,88.799210
2023-01-25T12:54:32.000Z,91.425690
2023-01-25T12:54:52.000Z,84.300270
2023-01-25T12:55:13.000Z,81.192741
2023-01-25T12:55:33.000Z,73.523956
2023-01-25T12:55:53.000Z,87.439407
2023-01-25T12:56:13.000Z,86.596542
2023-01-25T12:56:34.000Z,72.729164
2023-01-25T12:56:54.000Z,94.698532
2023-01-25T12:57:14.000Z,88.506989
2023-01-25T12:57:34.000Z,93.051353
2023-01-25T12:57:54.000Z,83.680290
2023-01-25T12:58:15.000Z,87.233376
2023-01-25T12:58:35.000Z,99.673653
2023-01-25T12:58:55.000Z,81.132866
2023-01-25T12:59:15.000Z,72.618835
2023-01-25T12:59:36.000Z,92.562691
2023-01-25T12:59:56.000Z,87.750275
2023-01-25T13:00:16.000Z,79.413658
2023-01-25T13:00:36.000Z,78.163780
2023-01-25T13:00:56.000Z,89.493408
2023-01-25T13:01:17.000Z,72.975548
2023-01-25T13:01:37.000Z,84.192467
2023-01-25T13:01:57.000Z,82.145401
2023-01-25T13:02:17.000Z,91.459038
2023-01-25T13:02:38.000Z,84.977882
2023-01-25T13:02:58.000Z,86.811951
2023-01-25T13:03:18.000Z,87.855934
2023-01-25T13:03:38.000Z,91.502144
2023-01-25T13:03:58.000Z,83.601273
2023-01-25T13:04:19.000Z,69.791428
2023-01-25T13:04:39.000Z,87.826958
2023-01-25T13:04:59.000Z,79.533295
2023-01-25T13:05:19.000Z,82.406441
2023-01-25T13:05:40.000Z,83.107956
2023-01-25T13:06:00.000Z,102.012970
2023-01-25T13:06:20.000Z,84.343536
2023-01-25T13:06:40.000Z,89.797890
2023-01-25T13:07:01.000Z,91.447128
2023-01-25T13:07:21.000Z,80.611061
2023-01-25T13:07:41.000Z,92.110535
2023-01-25T13:08:01.000Z,86.263847
2023-01-25T13:08:21.000Z,91.487823
2023-01-25T13:08:42.000Z,83.850372
2023-01-25T13:09:02.000Z,86.436180
2023-01-25T13:09:22.000Z,83.749817
2023-01-25T13:09:42.000Z,71.730751
2023-01-25T13:10:03.000Z,92.491264
2023-01-25T13:10:23.000Z,91.780174
2023-01-25T13:10:43.000Z,86.951012
2023-01-25T13:11:03.000Z,87.561493
2023-01-25T13:11:24.000Z,88.693680
2023-01-25T13:11:44.000Z,84.690742
2023-01-25T13:12:04.000Z,89.974785
2023-01-25T13:12:24.000Z,85.933678
2023-01-25T13:12:44.000Z,90.674240
2023-01-25T13:13:05.000Z,98.287636
2023-01-25T13:13:25.000Z,114.563431
2023-01-25T13:13:45.000Z,109.592979
2023-01-25T13:14:05.000Z,96.884796
2023-01-25T13:14:26.000Z,93.446220
2023-01-25T13:14:46.000Z,109.449432
2023-01-25T13:15:06.000Z,98.613228
2023-01-25T13:15:26.000Z,104.186668
2023-01-25T13:15:47.000Z,101.603615
2023-01-25T13:16:07.000Z,100.533119
2023-01-25T13:16:27.000Z,95.553444
2023-01-25T13:16:47.000Z,89.146637
2023-01-25T13:17:07.000Z,86.129730
2023-01-25T13:17:28.000Z,81.647736
2023-01-25T13:17:48.000Z,84.640633
2023-01-25T13:18:08.000Z,74.012451
2023-01-25T13:18:28.000Z,82.181412
2023-01-25T13:18:49.000Z,81.745804
2023-01-25T13:19:09.000Z,69.370026
2023-01-25T13:19:29.000Z,87.379349
2023-01-25T13:19:49.000Z,91.511894
2023-01-25T13:20:09.000Z,89.615662
2023-01-25T13:20:30.000Z,90.970909
2023-01-25T13:20:50.000Z,89.328362
2023-01-25T13:21:10.000Z,79.981361
2023-01-25T13:21:30.000Z,78.448860
2023-01-25T13:21:51.000Z,80.127167
2023-01-25T13:22:11.000Z,90.599571
2023-01-25T13:22:31.000Z,85.794456
2023-01-25T13:22:51.000Z,92.601181
2023-01-25T13:23:11.000Z,74.567780
2023-01-25T13:23:32.000Z,85.408745
2023-01-25T13:23:52.000Z,88.600395
2023-01-25T13:24:12.000Z,70.617439
2023-01-25T13:24:32.000Z,80.256523
2023-01-25T13:24:53.000Z,82.820595
2023-01-25T13:25:13.000Z,85.770309
2023-01-25T13:25:33.000Z,84.929932
2023-01-25T13:25:53.000Z,76.681847
2023-01-25T13:26:14.000Z,83.012352
2023-01-25T13:26:34.000Z,79.859070
2023-01-25T13:37:03.000Z,7.503431
2023-01-25T13:37:24.000Z,3.634407
2023-01-25T13:38:02.000Z,9.974245
2023-01-25T13:38:22.000Z,0.433352
2023-01-25T13:38:43.000Z,0.368707
2023-01-25T13:39:03.000Z,0.627280
2023-01-25T13:51:33.000Z,7.070077
2023-01-25T13:51:53.000Z,0.648828
2023-01-25T13:52:13.000Z,0.792480
2023-01-25T13:52:53.000Z,7.400477
2023-01-25T13:53:13.000Z,0.378284
2023-01-25T13:53:33.000Z,924.412781
2023-01-25T13:53:54.000Z,287.017029
2023-01-25T13:54:14.000Z,0.280121
2023-01-25T13:54:34.000Z,0.344765
2023-01-25T13:54:54.000Z,0.153229
2023-01-25T13:56:26.000Z,6.782773
2023-01-25T13:56:46.000Z,0.050278
2023-01-25T13:57:06.000Z,457.713379
2023-01-25T13:57:26.000Z,4.979940
2023-01-25T13:57:46.000Z,0.114922
2023-01-25T13:58:07.000Z,1.860295
2023-01-25T13:58:27.000Z,7.553708
2023-01-25T13:58:47.000Z,3.881000
2023-01-25T13:59:07.000Z,5.027826
2023-01-25T13:59:27.000Z,17.087421
2023-01-25T13:59:47.000Z,6.933612
2023-01-25T14:00:08.000Z,57.080173
2023-01-25T14:00:28.000Z,43.416451
2023-01-25T14:00:48.000Z,9.030928
2023-01-25T14:01:08.000Z,1.314415
2023-01-25T14:01:28.000Z,8.310275
2023-01-25T14:01:49.000Z,2.384625
2023-01-25T14:02:09.000Z,22.539013
2023-01-25T14:02:29.000Z,55.859085
2023-01-25T14:02:49.000Z,23.965958
2023-01-25T14:03:09.000Z,8.147470
2023-01-25T14:03:29.000Z,14.132966
2023-01-25T14:03:50.000Z,42.635933
2023-01-25T14:04:35.000Z,6.969521
2023-01-25T14:04:55.000Z,284.490997
2023-01-25T14:05:15.000Z,0.050278
2023-01-25T14:05:35.000Z,0.268150
2023-01-25T14:05:55.000Z,0.105345
